createdAt,value
2023-05-06T00:02:26.268Z,14.40
2023-05-06T00:04:56.958Z,14.37
2023-05-06T00:07:27.317Z,14.34
2023-05-06T00:10:01.861Z,14.31
2023-05-06T00:12:33.397Z,14.29
2023-05-06T00:15:04.170Z,14.26
2023-05-06T00:17:35.471Z,14.24
2023-05-06T00:20:09.301Z,14.24
2023-05-06T00:22:40.513Z,14.22
2023-05-06T00:25:12.909Z,14.20
2023-05-06T00:27:43.634Z,14.17
2023-05-06T00:30:16.312Z,14.16
2023-05-06T00:32:47.628Z,14.15
2023-05-06T00:35:18.935Z,14.13
2023-05-06T00:37:56.754Z,14.10
2023-05-06T00:40:28.112Z,14.07
2023-05-06T00:42:59.310Z,14.05
2023-05-06T00:45:31.132Z,14.03
2023-05-06T00:48:01.921Z,14.01
2023-05-06T00:50:33.054Z,13.99
2023-05-06T00:53:05.010Z,13.96
2023-05-06T00:55:35.791Z,13.95
2023-05-06T00:58:06.107Z,13.93
2023-05-06T01:00:38.595Z,13.89
2023-05-06T01:03:10.589Z,13.86
2023-05-06T01:05:50.359Z,13.83
2023-05-06T01:08:24.674Z,13.81
2023-05-06T01:10:56.416Z,13.77
2023-05-06T01:13:31.707Z,13.74
2023-05-06T01:16:04.275Z,13.70
2023-05-06T01:18:35.780Z,13.68
2023-05-06T01:21:09.857Z,13.66
2023-05-06T01:23:57.968Z,13.66
2023-05-06T01:26:29.084Z,13.65
2023-05-06T01:29:01.711Z,13.65
2023-05-06T01:31:42.905Z,13.67
2023-05-06T01:34:17.415Z,13.71
2023-05-06T01:36:58.683Z,13.74
2023-05-06T01:39:32.819Z,13.79
2023-05-06T01:42:04.493Z,13.83
2023-05-06T01:44:35.917Z,13.86
2023-05-06T01:47:07.487Z,13.88
2023-05-06T01:49:37.865Z,13.88
2023-05-06T01:52:10.384Z,13.88
2023-05-06T01:54:41.849Z,13.87
2023-05-06T01:57:15.061Z,13.85
2023-05-06T01:59:45.512Z,13.84
2023-05-06T02:02:17.778Z,13.84
2023-05-06T02:04:52.508Z,13.82
2023-05-06T02:07:24.374Z,13.82
2023-05-06T02:09:55.120Z,13.79
2023-05-06T02:12:26.996Z,13.78
2023-05-06T02:15:01.132Z,13.76
2023-05-06T02:17:32.111Z,13.77
2023-05-06T02:20:02.346Z,13.80
2023-05-06T02:22:32.727Z,13.84
2023-05-06T02:25:03.891Z,13.90
2023-05-06T02:27:34.562Z,13.97
2023-05-06T02:30:08.168Z,14.05
2023-05-06T02:32:40.244Z,14.14
2023-05-06T02:35:12.940Z,14.26
2023-05-06T02:37:47.903Z,14.57
2023-05-06T02:40:18.602Z,15.06
2023-05-06T02:42:48.874Z,15.61
2023-05-06T02:45:19.283Z,16.19
2023-05-06T02:47:49.676Z,16.81
2023-05-06T02:50:20.203Z,17.47
2023-05-06T02:52:50.696Z,18.15
2023-05-06T02:55:21.342Z,18.84
2023-05-06T02:57:52.480Z,19.53
2023-05-06T03:00:23.340Z,20.24
2023-05-06T03:02:53.991Z,20.96
2023-05-06T03:05:24.536Z,21.65
2023-05-06T03:07:54.991Z,22.36
2023-05-06T03:10:25.521Z,23.06
2023-05-06T03:12:55.852Z,23.72
2023-05-06T03:15:26.426Z,24.34
2023-05-06T03:17:56.934Z,24.98
2023-05-06T03:20:28.554Z,25.62
2023-05-06T03:22:58.786Z,26.27
2023-05-06T03:25:29.050Z,26.96
2023-05-06T03:27:59.243Z,27.64
2023-05-06T03:30:30.108Z,28.29
2023-05-06T03:33:03.138Z,28.87
2023-05-06T03:35:34.012Z,29.49
2023-05-06T03:38:04.637Z,30.10
2023-05-06T03:40:35.860Z,30.72
2023-05-06T03:43:07.649Z,31.32
2023-05-06T03:45:39.044Z,31.87
2023-05-06T03:48:09.604Z,32.39
2023-05-06T03:50:40.263Z,32.86
2023-05-06T03:53:10.564Z,33.28
2023-05-06T03:55:41.779Z,33.74
2023-05-06T03:58:12.852Z,34.24
2023-05-06T04:00:43.072Z,34.77
2023-05-06T04:03:14.825Z,35.21
2023-05-06T04:05:46.151Z,35.58
2023-05-06T04:08:17.060Z,36.06
2023-05-06T04:10:48.470Z,36.61
2023-05-06T04:13:19.460Z,37.23
2023-05-06T04:15:50.465Z,37.79
2023-05-06T04:18:21.413Z,38.34
2023-05-06T04:20:51.593Z,38.90
2023-05-06T04:23:22.901Z,39.37
2023-05-06T04:25:55.015Z,39.86
2023-05-06T04:28:25.390Z,40.33
2023-05-06T04:30:56.272Z,40.71
2023-05-06T04:33:27.157Z,41.02
2023-05-06T04:35:58.396Z,41.42
2023-05-06T04:38:31.677Z,41.92
2023-05-06T04:41:03.743Z,42.42
2023-05-06T04:43:34.421Z,42.86
2023-05-06T04:46:06.439Z,43.39
2023-05-06T04:48:39.133Z,43.92
2023-05-06T04:51:09.706Z,44.32
2023-05-06T04:53:40.981Z,44.61
2023-05-06T04:56:11.976Z,44.95
2023-05-06T04:58:46.166Z,45.18
2023-05-06T05:01:18.928Z,45.50
2023-05-06T05:03:49.677Z,45.85
2023-05-06T05:06:20.254Z,45.63
2023-05-06T05:08:50.773Z,45.40
2023-05-06T05:11:21.200Z,45.51
2023-05-06T05:13:51.547Z,45.79
2023-05-06T05:16:21.936Z,46.11
2023-05-06T05:18:52.473Z,46.17
2023-05-06T05:21:23.016Z,46.24
2023-05-06T05:23:53.360Z,46.20
2023-05-06T05:26:24.380Z,46.45
2023-05-06T05:28:54.898Z,46.60
2023-05-06T05:31:25.643Z,46.50
2023-05-06T05:33:56.323Z,46.89
2023-05-06T05:36:27.389Z,47.49
2023-05-06T05:38:58.210Z,47.91
2023-05-06T05:41:31.755Z,47.94
2023-05-06T05:44:00.746Z,48.09
2023-05-06T05:46:31.586Z,48.39
2023-05-06T05:49:02.101Z,48.65
2023-05-06T05:51:32.641Z,48.85
2023-05-06T05:54:02.928Z,48.96
2023-05-06T05:56:33.136Z,49.28
2023-05-06T05:59:03.504Z,49.74
2023-05-06T06:01:33.695Z,49.93
2023-05-06T06:04:04.214Z,49.96
2023-05-06T06:06:35.053Z,50.10
2023-05-06T06:09:05.612Z,50.17
2023-05-06T06:11:36.104Z,50.45
2023-05-06T06:14:08.127Z,50.76
2023-05-06T06:16:39.910Z,51.04
2023-05-06T06:19:10.542Z,51.35
2023-05-06T06:21:40.930Z,51.27
2023-05-06T06:24:11.252Z,51.03
2023-05-06T06:26:41.656Z,50.77
2023-05-06T06:29:12.325Z,50.89
2023-05-06T06:31:42.611Z,51.12
2023-05-06T06:34:13.137Z,51.19
2023-05-06T06:36:45.487Z,50.84
2023-05-06T06:39:16.150Z,50.27
2023-05-06T06:41:46.393Z,49.91
2023-05-06T06:44:16.901Z,49.91
2023-05-06T06:46:47.534Z,49.75
2023-05-06T06:49:18.309Z,49.68
2023-05-06T06:51:49.056Z,49.54
2023-05-06T06:54:19.382Z,49.55
2023-05-06T06:56:49.873Z,49.18
2023-05-06T06:59:20.065Z,48.89
2023-05-06T07:01:50.231Z,48.81
2023-05-06T07:04:20.630Z,48.78
2023-05-06T07:06:50.874Z,48.07
2023-05-06T07:09:22.055Z,45.76
2023-05-06T07:11:52.229Z,43.51
2023-05-06T07:14:23.117Z,41.54
2023-05-06T07:16:53.597Z,39.92
2023-05-06T07:19:24.065Z,38.64
2023-05-06T07:21:54.376Z,37.48
2023-05-06T07:24:25.136Z,36.44
2023-05-06T07:26:55.495Z,35.54
2023-05-06T07:29:26.131Z,34.72
2023-05-06T07:31:56.367Z,33.88
2023-05-06T07:34:26.721Z,33.19
2023-05-06T07:36:57.124Z,32.45
2023-05-06T07:39:27.512Z,31.94
2023-05-06T07:41:57.878Z,31.56
2023-05-06T07:44:28.086Z,31.36
2023-05-06T07:46:58.355Z,31.27
2023-05-06T07:49:31.230Z,31.31
2023-05-06T07:52:01.881Z,31.24
2023-05-06T07:54:32.475Z,31.14
2023-05-06T07:57:07.342Z,30.90
2023-05-06T07:59:37.970Z,30.73
2023-05-06T08:02:09.173Z,30.49
2023-05-06T08:04:41.602Z,30.27
2023-05-06T08:07:12.016Z,30.18
2023-05-06T08:09:42.530Z,30.08
2023-05-06T08:12:12.674Z,30.00
2023-05-06T08:14:42.918Z,29.88
2023-05-06T08:17:14.506Z,29.50
2023-05-06T08:19:44.644Z,29.20
2023-05-06T08:22:16.119Z,28.94
2023-05-06T08:24:47.172Z,28.62
2023-05-06T08:27:17.735Z,28.41
2023-05-06T08:29:48.550Z,28.19
2023-05-06T08:32:18.775Z,27.96
2023-05-06T08:34:49.378Z,27.76
2023-05-06T08:37:19.953Z,27.58
2023-05-06T08:39:50.422Z,27.47
2023-05-06T08:42:20.736Z,27.46
2023-05-06T08:44:53.041Z,27.36
2023-05-06T08:47:23.623Z,27.36
2023-05-06T08:49:54.408Z,27.32
2023-05-06T08:52:24.814Z,27.16
2023-05-06T08:55:01.048Z,27.03
2023-05-06T08:57:34.858Z,27.04
2023-05-06T09:00:10.670Z,26.96
2023-05-06T09:02:43.130Z,26.86
2023-05-06T09:05:14.314Z,26.78
2023-05-06T09:07:44.590Z,26.82
2023-05-06T09:10:18.054Z,26.88
2023-05-06T09:12:48.487Z,26.97
2023-05-06T09:15:20.887Z,27.17
2023-05-06T09:17:51.770Z,27.24
2023-05-06T09:20:32.121Z,27.19
2023-05-06T09:23:08.141Z,27.25
2023-05-06T09:25:39.796Z,27.33
2023-05-06T09:28:16.742Z,27.31
2023-05-06T09:30:48.022Z,27.33
2023-05-06T09:33:18.405Z,27.43
2023-05-06T09:35:49.754Z,27.55
2023-05-06T09:38:21.502Z,27.64
2023-05-06T09:40:52.089Z,27.67
2023-05-06T09:43:22.508Z,27.57
2023-05-06T09:45:52.946Z,27.45
2023-05-06T09:48:24.132Z,27.37
2023-05-06T09:50:54.984Z,27.33
2023-05-06T09:53:25.447Z,27.30
2023-05-06T09:55:57.487Z,27.26
2023-05-06T09:58:28.365Z,27.22
2023-05-06T10:00:59.334Z,27.22
2023-05-06T10:03:30.085Z,27.24
2023-05-06T10:06:03.306Z,27.27
2023-05-06T10:08:35.257Z,27.28
2023-05-06T10:11:07.293Z,27.21
2023-05-06T10:13:38.684Z,27.12
2023-05-06T10:16:10.142Z,27.05
2023-05-06T10:18:40.652Z,26.95
2023-05-06T10:21:21.848Z,27.01
2023-05-06T10:23:59.159Z,27.14
2023-05-06T10:26:31.485Z,27.23
2023-05-06T10:29:04.514Z,27.29
2023-05-06T10:31:36.284Z,27.38
2023-05-06T10:34:08.976Z,27.47
2023-05-06T10:36:40.862Z,27.48
2023-05-06T10:39:13.760Z,27.52
2023-05-06T10:41:44.066Z,27.65
2023-05-06T10:44:14.410Z,27.71
2023-05-06T10:47:00.940Z,27.68
2023-05-06T10:49:31.479Z,27.63
2023-05-06T10:52:19.170Z,27.59
2023-05-06T10:54:55.562Z,27.58
2023-05-06T10:57:27.292Z,27.65
2023-05-06T10:59:57.728Z,27.76
2023-05-06T11:02:31.876Z,27.91
2023-05-06T11:05:03.472Z,28.05
2023-05-06T11:07:33.893Z,28.16
2023-05-06T11:10:07.122Z,28.22
2023-05-06T11:12:49.133Z,28.17
2023-05-06T11:15:26.588Z,28.14
2023-05-06T11:17:57.962Z,28.17
2023-05-06T11:20:28.264Z,28.05
2023-05-06T11:22:58.644Z,27.96
2023-05-06T11:25:42.141Z,27.98
2023-05-06T11:28:14.379Z,27.92
2023-05-06T11:30:45.875Z,27.80
2023-05-06T11:33:19.537Z,27.71
2023-05-06T11:35:49.946Z,27.69
2023-05-06T11:38:21.399Z,27.68
2023-05-06T11:40:51.965Z,27.68
2023-05-06T11:43:22.439Z,27.76
2023-05-06T11:45:52.849Z,27.81
2023-05-06T11:48:23.923Z,27.83
2023-05-06T11:50:55.441Z,27.89
2023-05-06T11:53:26.103Z,27.92
2023-05-06T11:55:56.713Z,27.97
2023-05-06T11:58:28.164Z,27.95
2023-05-06T12:00:59.892Z,27.88
2023-05-06T12:03:31.911Z,27.82
2023-05-06T12:06:03.387Z,27.82
2023-05-06T12:08:34.707Z,27.81
2023-05-06T12:11:07.042Z,27.78
2023-05-06T12:13:37.963Z,27.67
2023-05-06T12:16:11.758Z,27.69
2023-05-06T12:18:42.414Z,27.76
2023-05-06T12:21:14.286Z,27.84
2023-05-06T12:23:53.783Z,27.88
2023-05-06T12:26:24.309Z,27.86
2023-05-06T12:29:10.647Z,27.86
2023-05-06T12:31:41.521Z,27.80
2023-05-06T12:34:11.997Z,27.72
2023-05-06T12:36:43.906Z,27.67
2023-05-06T12:39:15.227Z,27.60
2023-05-06T12:41:46.660Z,27.58
2023-05-06T12:44:33.798Z,27.51
2023-05-06T12:47:07.114Z,27.44
2023-05-06T12:49:49.227Z,27.43
2023-05-06T12:52:21.347Z,27.41
2023-05-06T12:54:53.369Z,27.42
2023-05-06T12:57:23.920Z,27.51
2023-05-06T12:59:55.963Z,27.63
2023-05-06T13:02:26.669Z,27.64
2023-05-06T13:04:58.062Z,27.62
2023-05-06T13:07:28.462Z,27.56
2023-05-06T13:10:02.633Z,27.47
2023-05-06T13:12:34.177Z,27.38
2023-05-06T13:15:05.135Z,27.30
2023-05-06T13:17:35.610Z,27.22
2023-05-06T13:20:07.957Z,27.14
2023-05-06T13:22:53.210Z,27.05
2023-05-06T13:25:25.538Z,27.06
2023-05-06T13:27:56.215Z,27.07
2023-05-06T13:30:26.806Z,27.12
2023-05-06T13:32:57.645Z,27.19
2023-05-06T13:35:28.724Z,27.18
2023-05-06T13:37:59.094Z,27.12
2023-05-06T13:40:29.734Z,27.06
2023-05-06T13:43:00.136Z,26.92
2023-05-06T13:45:30.760Z,26.78
2023-05-06T13:48:03.220Z,26.62
2023-05-06T13:50:35.702Z,26.49
2023-05-06T13:53:06.346Z,26.35
2023-05-06T13:55:37.429Z,26.25
2023-05-06T13:58:08.160Z,26.24
2023-05-06T14:00:38.781Z,26.24
2023-05-06T14:03:09.783Z,26.26
2023-05-06T14:05:40.205Z,26.30
2023-05-06T14:08:10.759Z,26.32
2023-05-06T14:10:43.778Z,26.26
2023-05-06T14:13:14.540Z,26.20
2023-05-06T14:15:48.603Z,26.15
2023-05-06T14:18:19.001Z,26.07
2023-05-06T14:20:49.460Z,25.91
2023-05-06T14:23:19.765Z,25.76
2023-05-06T14:25:50.554Z,25.63
2023-05-06T14:28:21.043Z,25.55
2023-05-06T14:30:51.826Z,25.50
2023-05-06T14:33:23.711Z,25.42
2023-05-06T14:35:54.374Z,25.33
2023-05-06T14:38:24.942Z,25.25
2023-05-06T14:40:56.058Z,25.11
2023-05-06T14:43:26.966Z,24.98
2023-05-06T14:45:57.242Z,24.88
2023-05-06T14:48:27.691Z,24.86
2023-05-06T14:50:58.006Z,24.86
2023-05-06T14:53:28.754Z,24.88
2023-05-06T14:55:59.081Z,24.87
2023-05-06T14:58:29.546Z,24.87
2023-05-06T15:01:00.017Z,24.89
2023-05-06T15:03:30.328Z,24.90
2023-05-06T15:06:00.873Z,24.92
2023-05-06T15:08:31.240Z,24.92
2023-05-06T15:11:03.849Z,24.92
2023-05-06T15:13:34.755Z,24.89
2023-05-06T15:16:05.710Z,24.80
2023-05-06T15:18:37.763Z,24.71
2023-05-06T15:21:08.699Z,24.60
2023-05-06T15:23:39.411Z,24.51
2023-05-06T15:26:09.965Z,24.42
2023-05-06T15:28:41.238Z,24.32
2023-05-06T15:31:12.671Z,24.19
2023-05-06T15:33:43.508Z,24.08
2023-05-06T15:36:14.351Z,23.99
2023-05-06T15:39:00.342Z,23.90
2023-05-06T15:41:32.513Z,23.82
2023-05-06T15:46:36.246Z,23.65
2023-05-06T15:51:40.496Z,23.50
2023-05-06T15:54:10.858Z,23.42
2023-05-06T15:56:42.145Z,23.34
2023-05-06T15:59:12.787Z,23.26
2023-05-06T16:02:24.413Z,23.17
2023-05-06T16:04:33.936Z,23.07
2023-05-06T16:07:04.687Z,22.98
2023-05-06T16:09:35.148Z,22.89
2023-05-06T16:12:06.683Z,22.81
2023-05-06T16:14:37.402Z,22.73
2023-05-06T16:17:10.830Z,22.65
2023-05-06T16:19:41.870Z,22.56
2023-05-06T16:22:12.905Z,22.47
2023-05-06T16:24:43.423Z,22.37
2023-05-06T16:27:16.617Z,22.28
2023-05-06T16:29:47.181Z,22.19
2023-05-06T16:32:17.686Z,22.11
2023-05-06T16:34:47.943Z,22.02
2023-05-06T16:37:18.300Z,21.93
2023-05-06T16:39:49.192Z,21.85
2023-05-06T16:42:19.600Z,21.77
2023-05-06T16:44:50.533Z,21.70
2023-05-06T16:47:24.310Z,21.63
2023-05-06T16:49:55.455Z,21.56
2023-05-06T16:52:26.541Z,21.50
2023-05-06T16:55:04.558Z,21.44
2023-05-06T16:57:35.724Z,21.39
2023-05-06T17:00:12.224Z,21.33
2023-05-06T17:02:44.301Z,21.27
2023-05-06T17:05:15.328Z,21.21
2023-05-06T17:07:46.128Z,21.15
2023-05-06T17:10:16.413Z,21.09
2023-05-06T17:12:47.056Z,21.04
2023-05-06T17:15:17.640Z,20.98
2023-05-06T17:17:48.039Z,20.93
2023-05-06T17:20:20.639Z,20.88
2023-05-06T17:22:51.671Z,20.83
2023-05-06T17:25:24.347Z,20.78
2023-05-06T17:27:55.015Z,20.73
2023-05-06T17:30:25.740Z,20.70
2023-05-06T17:32:56.561Z,20.66
2023-05-06T17:35:27.115Z,20.61
2023-05-06T17:37:58.508Z,20.56
2023-05-06T17:40:29.480Z,20.53
2023-05-06T17:43:00.406Z,20.48
2023-05-06T17:45:31.949Z,20.44
2023-05-06T17:48:04.568Z,20.40
2023-05-06T17:50:36.607Z,20.36
2023-05-06T17:53:12.066Z,20.31
2023-05-06T17:55:46.702Z,20.25
2023-05-06T17:58:19.747Z,20.21
2023-05-06T18:00:50.435Z,20.15
2023-05-06T18:03:21.285Z,20.10
2023-05-06T18:05:53.170Z,20.00
2023-05-06T18:08:29.522Z,19.91
2023-05-06T18:11:01.300Z,19.83
2023-05-06T18:13:34.428Z,19.77
2023-05-06T18:16:04.953Z,19.73
2023-05-06T18:18:35.494Z,19.71
2023-05-06T18:21:06.211Z,19.68
2023-05-06T18:23:36.438Z,19.66
2023-05-06T18:26:07.931Z,19.63
2023-05-06T18:28:40.864Z,19.60
2023-05-06T18:31:11.315Z,19.58
2023-05-06T18:33:41.696Z,19.56
2023-05-06T18:36:15.234Z,19.55
2023-05-06T18:38:45.781Z,19.54
2023-05-06T18:41:17.940Z,19.53
2023-05-06T18:43:48.649Z,19.52
2023-05-06T18:46:19.049Z,19.52
2023-05-06T18:48:49.347Z,19.51
2023-05-06T18:51:20.444Z,19.50
2023-05-06T18:53:51.951Z,19.48
2023-05-06T18:56:22.632Z,19.45
2023-05-06T18:58:52.862Z,19.39
2023-05-06T19:01:23.542Z,19.34
2023-05-06T19:03:53.817Z,19.29
2023-05-06T19:06:24.333Z,19.24
2023-05-06T19:08:54.670Z,19.19
2023-05-06T19:11:24.923Z,19.15
2023-05-06T19:13:55.182Z,19.12
2023-05-06T19:16:26.669Z,19.08
2023-05-06T19:18:57.246Z,19.03
2023-05-06T19:21:28.017Z,18.98
2023-05-06T19:23:59.560Z,18.95
2023-05-06T19:26:29.980Z,18.90
2023-05-06T19:29:00.560Z,18.87
2023-05-06T19:31:31.894Z,18.85
2023-05-06T19:34:02.404Z,18.84
2023-05-06T19:36:35.375Z,18.83
2023-05-06T19:39:06.199Z,18.82
2023-05-06T19:41:36.596Z,18.82
2023-05-06T19:44:07.766Z,18.80
2023-05-06T19:46:39.104Z,18.80
2023-05-06T19:49:09.516Z,18.79
2023-05-06T19:51:39.757Z,18.77
2023-05-06T19:54:10.127Z,18.77
2023-05-06T19:56:41.050Z,18.76
2023-05-06T19:59:11.348Z,18.74
2023-05-06T20:01:41.622Z,18.74
2023-05-06T20:04:11.937Z,18.73
2023-05-06T20:06:42.313Z,18.71
2023-05-06T20:09:12.661Z,18.68
2023-05-06T20:11:42.937Z,18.66
2023-05-06T20:14:13.317Z,18.65
2023-05-06T20:16:43.730Z,18.65
2023-05-06T20:19:13.953Z,18.65
2023-05-06T20:21:44.275Z,18.64
2023-05-06T20:24:15.255Z,18.63
2023-05-06T20:26:45.812Z,18.61
2023-05-06T20:29:17.781Z,18.59
2023-05-06T20:31:48.698Z,18.58
2023-05-06T20:34:19.296Z,18.58
2023-05-06T20:36:49.688Z,18.58
2023-05-06T20:39:20.130Z,18.58
2023-05-06T20:41:50.608Z,18.59
2023-05-06T20:44:21.793Z,18.60
2023-05-06T20:46:52.438Z,18.61
2023-05-06T20:49:25.022Z,18.62
2023-05-06T20:51:56.857Z,18.65
2023-05-06T20:54:27.396Z,18.68
2023-05-06T20:56:58.248Z,18.70
2023-05-06T20:59:29.186Z,18.72
2023-05-06T21:01:59.898Z,18.73
2023-05-06T21:04:30.318Z,18.74
2023-05-06T21:07:00.717Z,18.74
2023-05-06T21:09:30.929Z,18.74
2023-05-06T21:12:01.182Z,18.74
2023-05-06T21:14:31.776Z,18.74
2023-05-06T21:17:02.120Z,18.74
2023-05-06T21:19:32.786Z,18.73
2023-05-06T21:22:02.984Z,18.74
2023-05-06T21:24:33.228Z,18.74
2023-05-06T21:27:03.404Z,18.73
2023-05-06T21:29:33.734Z,18.71
2023-05-06T21:32:05.023Z,18.70
2023-05-06T21:34:35.394Z,18.69
2023-05-06T21:37:06.143Z,18.70
2023-05-06T21:39:36.653Z,18.71
2023-05-06T21:42:08.620Z,18.71
2023-05-06T21:44:39.113Z,18.70
2023-05-06T21:47:09.588Z,18.68
2023-05-06T21:49:39.810Z,18.64
2023-05-06T21:52:10.353Z,18.63
2023-05-06T21:54:40.943Z,18.63
2023-05-06T21:57:12.395Z,18.65
2023-05-06T21:59:42.777Z,18.67
2023-05-06T22:02:13.012Z,18.68
2023-05-06T22:04:43.549Z,18.70
2023-05-06T22:07:14.124Z,18.70
2023-05-06T22:09:44.497Z,18.71
2023-05-06T22:12:15.284Z,18.71
2023-05-06T22:14:45.744Z,18.71
2023-05-06T22:17:16.181Z,18.68
2023-05-06T22:19:46.699Z,18.63
2023-05-06T22:22:17.664Z,18.60
2023-05-06T22:24:48.819Z,18.60
2023-05-06T22:27:19.236Z,18.59
2023-05-06T22:29:49.751Z,18.59
2023-05-06T22:32:21.347Z,18.59
2023-05-06T22:34:51.747Z,18.59
2023-05-06T22:37:22.267Z,18.59
2023-05-06T22:39:53.071Z,18.60
2023-05-06T22:42:24.098Z,18.61
2023-05-06T22:44:54.785Z,18.62
2023-05-06T22:47:25.140Z,18.62
2023-05-06T22:49:55.508Z,18.62
2023-05-06T22:52:25.732Z,18.61
2023-05-06T22:54:57.051Z,18.61
2023-05-06T22:57:27.706Z,18.61
2023-05-06T22:59:58.327Z,18.60
2023-05-06T23:02:29.284Z,18.57
2023-05-06T23:05:00.015Z,18.54
2023-05-06T23:07:30.470Z,18.51
2023-05-06T23:10:00.684Z,18.51
2023-05-06T23:12:34.578Z,18.51
2023-05-06T23:15:05.856Z,18.51
2023-05-06T23:17:36.177Z,18.51
2023-05-06T23:20:07.782Z,18.52
2023-05-06T23:22:38.241Z,18.51
2023-05-06T23:25:11.636Z,18.51
2023-05-06T23:27:42.922Z,18.49
2023-05-06T23:30:14.838Z,18.48
2023-05-06T23:32:44.970Z,18.47
2023-05-06T23:35:15.295Z,18.45
2023-05-06T23:37:45.719Z,18.43
2023-05-06T23:40:16.684Z,18.41
2023-05-06T23:42:47.094Z,18.37
2023-05-06T23:45:18.264Z,18.33
2023-05-06T23:47:48.654Z,18.30
2023-05-06T23:50:19.405Z,18.27
2023-05-06T23:52:49.968Z,18.22
2023-05-06T23:55:20.676Z,18.13
2023-05-06T23:57:50.927Z,18.08
